sensor_id;sensor_type;location;lat;lon;timestamp;P1;durP1;ratioP1;P2;durP2;ratioP2
7171;SDS011;3627;46.544;14.944;2023-11-21T00:01:19;22.08;;;13.93;;
7171;SDS011;3627;46.544;14.944;2023-11-21T00:03:46;20.88;;;14.15;;
7171;SDS011;3627;46.544;14.944;2023-11-21T00:06:12;20.55;;;13.07;;
7171;SDS011;3627;46.544;14.944;2023-11-21T00:08:39;18.15;;;12.90;;
7171;SDS011;3627;46.544;14.944;2023-11-21T00:11:06;20.92;;;13.65;;
7171;SDS011;3627;46.544;14.944;2023-11-21T00:13:32;15.95;;;12.40;;
7171;SDS011;3627;46.544;14.944;2023-11-21T00:16:00;17.88;;;12.23;;
7171;SDS011;3627;46.544;14.944;2023-11-21T00:18:27;16.15;;;12.30;;
7171;SDS011;3627;46.544;14.944;2023-11-21T00:20:53;16.77;;;12.02;;
7171;SDS011;3627;46.544;14.944;2023-11-21T00:23:19;17.13;;;11.73;;
7171;SDS011;3627;46.544;14.944;2023-11-21T00:25:46;17.27;;;12.00;;
7171;SDS011;3627;46.544;14.944;2023-11-21T00:28:12;22.52;;;12.00;;
7171;SDS011;3627;46.544;14.944;2023-11-21T00:30:39;17.08;;;12.52;;
7171;SDS011;3627;46.544;14.944;2023-11-21T00:33:07;17.83;;;11.23;;
7171;SDS011;3627;46.544;14.944;2023-11-21T00:35:33;15.90;;;11.25;;
7171;SDS011;3627;46.544;14.944;2023-11-21T00:38:00;17.67;;;10.95;;
7171;SDS011;3627;46.544;14.944;2023-11-21T00:40:26;18.73;;;12.38;;
7171;SDS011;3627;46.544;14.944;2023-11-21T00:42:53;16.60;;;11.30;;
7171;SDS011;3627;46.544;14.944;2023-11-21T00:45:21;16.52;;;11.88;;
7171;SDS011;3627;46.544;14.944;2023-11-21T00:47:47;16.00;;;11.35;;
7171;SDS011;3627;46.544;14.944;2023-11-21T00:50:15;17.35;;;11.38;;
7171;SDS011;3627;46.544;14.944;2023-11-21T00:52:41;16.33;;;11.10;;
7171;SDS011;3627;46.544;14.944;2023-11-21T00:55:08;15.30;;;10.82;;
7171;SDS011;3627;46.544;14.944;2023-11-21T00:57:35;14.15;;;10.60;;
7171;SDS011;3627;46.544;14.944;2023-11-21T01:00:02;19.00;;;10.63;;
7171;SDS011;3627;46.544;14.944;2023-11-21T01:02:31;14.70;;;10.18;;
7171;SDS011;3627;46.544;14.944;2023-11-21T01:04:58;13.45;;;10.13;;
7171;SDS011;3627;46.544;14.944;2023-11-21T01:07:26;13.07;;;9.30;;
7171;SDS011;3627;46.544;14.944;2023-11-21T01:09:52;12.52;;;9.40;;
7171;SDS011;3627;46.544;14.944;2023-11-21T01:12:19;12.23;;;9.27;;
7171;SDS011;3627;46.544;14.944;2023-11-21T01:14:45;12.88;;;9.65;;
7171;SDS011;3627;46.544;14.944;2023-11-21T01:17:12;13.65;;;10.60;;
7171;SDS011;3627;46.544;14.944;2023-11-21T01:19:38;14.60;;;9.93;;
7171;SDS011;3627;46.544;14.944;2023-11-21T01:22:04;13.55;;;9.80;;
7171;SDS011;3627;46.544;14.944;2023-11-21T01:24:32;13.95;;;10.18;;
7171;SDS011;3627;46.544;14.944;2023-11-21T01:26:58;11.43;;;9.57;;
7171;SDS011;3627;46.544;14.944;2023-11-21T01:29:24;13.60;;;9.80;;
7171;SDS011;3627;46.544;14.944;2023-11-21T01:31:50;12.30;;;9.35;;
7171;SDS011;3627;46.544;14.944;2023-11-21T01:34:17;15.05;;;9.02;;
7171;SDS011;3627;46.544;14.944;2023-11-21T01:36:45;11.90;;;9.30;;
7171;SDS011;3627;46.544;14.944;2023-11-21T01:39:11;12.57;;;9.93;;
7171;SDS011;3627;46.544;14.944;2023-11-21T01:41:42;13.85;;;9.43;;
7171;SDS011;3627;46.544;14.944;2023-11-21T01:44:09;11.80;;;9.05;;
7171;SDS011;3627;46.544;14.944;2023-11-21T01:46:35;13.40;;;9.20;;
7171;SDS011;3627;46.544;14.944;2023-11-21T01:49:02;17.83;;;10.30;;
7171;SDS011;3627;46.544;14.944;2023-11-21T01:51:29;12.73;;;9.88;;
7171;SDS011;3627;46.544;14.944;2023-11-21T01:53:56;12.90;;;8.75;;
7171;SDS011;3627;46.544;14.944;2023-11-21T01:56:22;12.57;;;8.35;;
7171;SDS011;3627;46.544;14.944;2023-11-21T01:58:50;13.30;;;8.93;;
7171;SDS011;3627;46.544;14.944;2023-11-21T02:01:17;9.95;;;8.50;;
7171;SDS011;3627;46.544;14.944;2023-11-21T02:03:44;10.32;;;7.38;;
7171;SDS011;3627;46.544;14.944;2023-11-21T02:06:10;9.88;;;7.72;;
7171;SDS011;3627;46.544;14.944;2023-11-21T02:08:37;11.93;;;8.05;;
7171;SDS011;3627;46.544;14.944;2023-11-21T02:11:04;9.02;;;7.95;;
7171;SDS011;3627;46.544;14.944;2023-11-21T02:13:31;8.05;;;7.03;;
7171;SDS011;3627;46.544;14.944;2023-11-21T02:15:59;8.50;;;7.22;;
7171;SDS011;3627;46.544;14.944;2023-11-21T02:18:25;18.15;;;8.77;;
7171;SDS011;3627;46.544;14.944;2023-11-21T02:20:54;10.98;;;8.13;;
7171;SDS011;3627;46.544;14.944;2023-11-21T02:23:22;9.18;;;8.20;;
7171;SDS011;3627;46.544;14.944;2023-11-21T02:25:53;10.20;;;8.00;;
7171;SDS011;3627;46.544;14.944;2023-11-21T02:28:20;11.07;;;8.25;;
7171;SDS011;3627;46.544;14.944;2023-11-21T02:30:50;8.85;;;7.95;;
7171;SDS011;3627;46.544;14.944;2023-11-21T02:33:20;8.10;;;7.30;;
7171;SDS011;3627;46.544;14.944;2023-11-21T02:35:47;8.13;;;7.28;;
7171;SDS011;3627;46.544;14.944;2023-11-21T02:38:13;11.20;;;7.90;;
7171;SDS011;3627;46.544;14.944;2023-11-21T02:40:42;9.98;;;7.28;;
7171;SDS011;3627;46.544;14.944;2023-11-21T02:43:08;10.95;;;7.90;;
7171;SDS011;3627;46.544;14.944;2023-11-21T02:45:34;12.20;;;8.15;;
7171;SDS011;3627;46.544;14.944;2023-11-21T02:48:01;11.68;;;8.60;;
7171;SDS011;3627;46.544;14.944;2023-11-21T02:50:28;11.80;;;8.70;;
7171;SDS011;3627;46.544;14.944;2023-11-21T02:52:55;11.45;;;8.63;;
7171;SDS011;3627;46.544;14.944;2023-11-21T02:55:22;9.15;;;8.20;;
7171;SDS011;3627;46.544;14.944;2023-11-21T02:57:51;13.02;;;8.07;;
7171;SDS011;3627;46.544;14.944;2023-11-21T03:00:17;11.27;;;8.52;;
7171;SDS011;3627;46.544;14.944;2023-11-21T03:02:45;10.77;;;8.00;;
7171;SDS011;3627;46.544;14.944;2023-11-21T03:05:12;9.85;;;8.27;;
7171;SDS011;3627;46.544;14.944;2023-11-21T03:07:39;9.73;;;7.72;;
7171;SDS011;3627;46.544;14.944;2023-11-21T03:10:06;9.98;;;8.27;;
7171;SDS011;3627;46.544;14.944;2023-11-21T03:12:34;8.45;;;7.65;;
7171;SDS011;3627;46.544;14.944;2023-11-21T03:15:02;10.48;;;8.10;;
7171;SDS011;3627;46.544;14.944;2023-11-21T03:17:28;12.10;;;8.27;;
7171;SDS011;3627;46.544;14.944;2023-11-21T03:19:55;9.40;;;7.85;;
7171;SDS011;3627;46.544;14.944;2023-11-21T03:22:22;10.13;;;8.40;;
7171;SDS011;3627;46.544;14.944;2023-11-21T03:24:48;7.88;;;7.07;;
7171;SDS011;3627;46.544;14.944;2023-11-21T03:27:14;9.88;;;8.38;;
7171;SDS011;3627;46.544;14.944;2023-11-21T03:29:41;12.02;;;8.32;;
7171;SDS011;3627;46.544;14.944;2023-11-21T03:32:09;10.10;;;8.20;;
7171;SDS011;3627;46.544;14.944;2023-11-21T03:34:35;12.02;;;8.77;;
7171;SDS011;3627;46.544;14.944;2023-11-21T03:37:01;10.45;;;8.65;;
7171;SDS011;3627;46.544;14.944;2023-11-21T03:39:28;12.05;;;8.93;;
7171;SDS011;3627;46.544;14.944;2023-11-21T03:41:54;11.68;;;8.15;;
7171;SDS011;3627;46.544;14.944;2023-11-21T03:44:20;10.60;;;8.50;;
7171;SDS011;3627;46.544;14.944;2023-11-21T03:46:47;12.88;;;8.57;;
7171;SDS011;3627;46.544;14.944;2023-11-21T03:49:15;11.15;;;8.45;;
7171;SDS011;3627;46.544;14.944;2023-11-21T03:51:41;12.07;;;8.70;;
7171;SDS011;3627;46.544;14.944;2023-11-21T03:54:07;8.98;;;7.45;;
7171;SDS011;3627;46.544;14.944;2023-11-21T03:56:34;10.38;;;8.65;;
7171;SDS011;3627;46.544;14.944;2023-11-21T03:59:00;9.93;;;8.48;;
7171;SDS011;3627;46.544;14.944;2023-11-21T04:01:28;11.38;;;8.52;;
7171;SDS011;3627;46.544;14.944;2023-11-21T04:03:54;9.13;;;8.18;;
7171;SDS011;3627;46.544;14.944;2023-11-21T04:06:23;8.95;;;7.93;;
7171;SDS011;3627;46.544;14.944;2023-11-21T04:08:50;11.38;;;8.25;;
7171;SDS011;3627;46.544;14.944;2023-11-21T04:11:16;14.13;;;9.40;;
7171;SDS011;3627;46.544;14.944;2023-11-21T04:13:43;13.82;;;10.38;;
7171;SDS011;3627;46.544;14.944;2023-11-21T04:16:09;11.05;;;8.93;;
7171;SDS011;3627;46.544;14.944;2023-11-21T04:18:36;10.75;;;8.25;;
7171;SDS011;3627;46.544;14.944;2023-11-21T04:21:02;14.32;;;9.10;;
7171;SDS011;3627;46.544;14.944;2023-11-21T04:23:30;12.70;;;9.52;;
7171;SDS011;3627;46.544;14.944;2023-11-21T04:25:57;13.88;;;9.20;;
7171;SDS011;3627;46.544;14.944;2023-11-21T04:28:24;12.93;;;9.02;;
7171;SDS011;3627;46.544;14.944;2023-11-21T04:30:50;10.02;;;8.90;;
7171;SDS011;3627;46.544;14.944;2023-11-21T04:33:16;11.70;;;9.52;;
7171;SDS011;3627;46.544;14.944;2023-11-21T04:35:43;9.93;;;8.57;;
7171;SDS011;3627;46.544;14.944;2023-11-21T04:38:09;12.25;;;8.93;;
7171;SDS011;3627;46.544;14.944;2023-11-21T04:40:37;10.82;;;8.73;;
7171;SDS011;3627;46.544;14.944;2023-11-21T04:43:04;11.18;;;9.68;;
7171;SDS011;3627;46.544;14.944;2023-11-21T04:45:30;11.75;;;8.73;;
7171;SDS011;3627;46.544;14.944;2023-11-21T04:47:56;11.60;;;8.88;;
7171;SDS011;3627;46.544;14.944;2023-11-21T04:50:23;12.57;;;9.13;;
7171;SDS011;3627;46.544;14.944;2023-11-21T04:52:51;9.65;;;8.50;;
7171;SDS011;3627;46.544;14.944;2023-11-21T04:55:17;13.02;;;8.98;;
7171;SDS011;3627;46.544;14.944;2023-11-21T04:57:46;9.77;;;8.55;;
7171;SDS011;3627;46.544;14.944;2023-11-21T05:00:12;9.15;;;8.25;;
7171;SDS011;3627;46.544;14.944;2023-11-21T05:02:39;12.35;;;8.90;;
7171;SDS011;3627;46.544;14.944;2023-11-21T05:05:06;11.00;;;8.35;;
7171;SDS011;3627;46.544;14.944;2023-11-21T05:07:35;13.80;;;9.13;;
7171;SDS011;3627;46.544;14.944;2023-11-21T05:10:03;10.35;;;8.95;;
7171;SDS011;3627;46.544;14.944;2023-11-21T05:12:31;12.90;;;9.07;;
7171;SDS011;3627;46.544;14.944;2023-11-21T05:15:01;12.50;;;8.32;;
7171;SDS011;3627;46.544;14.944;2023-11-21T05:17:32;10.68;;;8.52;;
7171;SDS011;3627;46.544;14.944;2023-11-21T05:19:59;13.02;;;8.70;;
7171;SDS011;3627;46.544;14.944;2023-11-21T05:22:28;11.15;;;8.98;;
7171;SDS011;3627;46.544;14.944;2023-11-21T05:24:55;13.95;;;9.45;;
7171;SDS011;3627;46.544;14.944;2023-11-21T05:27:21;10.98;;;9.32;;
7171;SDS011;3627;46.544;14.944;2023-11-21T05:29:47;13.13;;;9.02;;
7171;SDS011;3627;46.544;14.944;2023-11-21T05:32:15;13.40;;;9.50;;
7171;SDS011;3627;46.544;14.944;2023-11-21T05:34:42;10.10;;;8.80;;
7171;SDS011;3627;46.544;14.944;2023-11-21T05:37:08;10.05;;;8.93;;
7171;SDS011;3627;46.544;14.944;2023-11-21T05:39:35;10.95;;;9.43;;
7171;SDS011;3627;46.544;14.944;2023-11-21T05:42:01;12.70;;;8.60;;
7171;SDS011;3627;46.544;14.944;2023-11-21T05:44:28;15.43;;;9.80;;
7171;SDS011;3627;46.544;14.944;2023-11-21T05:46:55;13.05;;;9.65;;
7171;SDS011;3627;46.544;14.944;2023-11-21T05:49:25;10.48;;;9.38;;
7171;SDS011;3627;46.544;14.944;2023-11-21T05:51:52;12.13;;;10.23;;
7171;SDS011;3627;46.544;14.944;2023-11-21T05:54:20;10.52;;;9.50;;
7171;SDS011;3627;46.544;14.944;2023-11-21T05:56:47;11.18;;;9.93;;
7171;SDS011;3627;46.544;14.944;2023-11-21T05:59:14;12.18;;;8.80;;
7171;SDS011;3627;46.544;14.944;2023-11-21T06:01:41;11.52;;;8.82;;
7171;SDS011;3627;46.544;14.944;2023-11-21T06:04:07;11.70;;;8.82;;
7171;SDS011;3627;46.544;14.944;2023-11-21T06:06:36;12.85;;;8.80;;
7171;SDS011;3627;46.544;14.944;2023-11-21T06:09:02;9.40;;;8.45;;
7171;SDS011;3627;46.544;14.944;2023-11-21T06:11:29;11.63;;;9.05;;
7171;SDS011;3627;46.544;14.944;2023-11-21T06:13:55;11.68;;;8.45;;
7171;SDS011;3627;46.544;14.944;2023-11-21T06:16:22;12.73;;;8.60;;
7171;SDS011;3627;46.544;14.944;2023-11-21T06:18:48;9.70;;;8.57;;
7171;SDS011;3627;46.544;14.944;2023-11-21T06:21:14;11.85;;;8.45;;
7171;SDS011;3627;46.544;14.944;2023-11-21T06:23:43;10.13;;;8.55;;
7171;SDS011;3627;46.544;14.944;2023-11-21T06:26:09;10.50;;;8.18;;
7171;SDS011;3627;46.544;14.944;2023-11-21T06:28:35;11.20;;;8.88;;
7171;SDS011;3627;46.544;14.944;2023-11-21T06:31:02;10.40;;;8.40;;
7171;SDS011;3627;46.544;14.944;2023-11-21T06:33:30;10.20;;;8.73;;
7171;SDS011;3627;46.544;14.944;2023-11-21T06:35:56;10.30;;;7.97;;
7171;SDS011;3627;46.544;14.944;2023-11-21T06:38:23;9.73;;;8.45;;
7171;SDS011;3627;46.544;14.944;2023-11-21T06:40:50;9.30;;;7.93;;
7171;SDS011;3627;46.544;14.944;2023-11-21T06:43:17;9.38;;;8.48;;
7171;SDS011;3627;46.544;14.944;2023-11-21T06:45:43;10.68;;;7.63;;
7171;SDS011;3627;46.544;14.944;2023-11-21T06:48:10;9.73;;;8.25;;
7171;SDS011;3627;46.544;14.944;2023-11-21T06:50:36;11.30;;;8.13;;
7171;SDS011;3627;46.544;14.944;2023-11-21T06:53:02;9.55;;;7.95;;
7171;SDS011;3627;46.544;14.944;2023-11-21T06:55:31;9.82;;;7.65;;
7171;SDS011;3627;46.544;14.944;2023-11-21T06:57:59;9.75;;;8.63;;
7171;SDS011;3627;46.544;14.944;2023-11-21T07:00:26;12.15;;;7.57;;
7171;SDS011;3627;46.544;14.944;2023-11-21T07:02:53;8.48;;;7.57;;
7171;SDS011;3627;46.544;14.944;2023-11-21T07:05:20;10.93;;;8.60;;
7171;SDS011;3627;46.544;14.944;2023-11-21T07:07:46;8.95;;;7.47;;
7171;SDS011;3627;46.544;14.944;2023-11-21T07:10:13;8.50;;;7.60;;
7171;SDS011;3627;46.544;14.944;2023-11-21T07:12:39;10.50;;;7.65;;
7171;SDS011;3627;46.544;14.944;2023-11-21T07:15:08;10.52;;;7.78;;
7171;SDS011;3627;46.544;14.944;2023-11-21T07:17:35;9.05;;;8.15;;
7171;SDS011;3627;46.544;14.944;2023-11-21T07:20:02;9.98;;;8.32;;
7171;SDS011;3627;46.544;14.944;2023-11-21T07:22:29;10.40;;;8.15;;
7171;SDS011;3627;46.544;14.944;2023-11-21T07:24:55;10.73;;;8.35;;
7171;SDS011;3627;46.544;14.944;2023-11-21T07:27:22;10.50;;;8.73;;
7171;SDS011;3627;46.544;14.944;2023-11-21T07:29:49;9.70;;;8.05;;
7171;SDS011;3627;46.544;14.944;2023-11-21T07:32:16;8.98;;;7.78;;
7171;SDS011;3627;46.544;14.944;2023-11-21T07:34:43;9.73;;;7.85;;
7171;SDS011;3627;46.544;14.944;2023-11-21T07:37:09;13.68;;;9.10;;
7171;SDS011;3627;46.544;14.944;2023-11-21T07:39:35;11.50;;;9.15;;
7171;SDS011;3627;46.544;14.944;2023-11-21T07:42:02;12.30;;;11.00;;
7171;SDS011;3627;46.544;14.944;2023-11-21T07:44:29;15.18;;;10.85;;
7171;SDS011;3627;46.544;14.944;2023-11-21T07:46:55;12.30;;;10.43;;
7171;SDS011;3627;46.544;14.944;2023-11-21T07:49:24;12.05;;;9.45;;
7171;SDS011;3627;46.544;14.944;2023-11-21T07:51:51;11.27;;;9.38;;
7171;SDS011;3627;46.544;14.944;2023-11-21T07:54:18;13.55;;;10.95;;
7171;SDS011;3627;46.544;14.944;2023-11-21T07:56:44;13.07;;;10.48;;
7171;SDS011;3627;46.544;14.944;2023-11-21T07:59:11;14.73;;;11.52;;
7171;SDS011;3627;46.544;14.944;2023-11-21T08:01:37;14.13;;;10.98;;
7171;SDS011;3627;46.544;14.944;2023-11-21T08:04:05;14.23;;;10.43;;
7171;SDS011;3627;46.544;14.944;2023-11-21T08:06:33;14.90;;;11.52;;
7171;SDS011;3627;46.544;14.944;2023-11-21T08:08:59;15.32;;;11.48;;
7171;SDS011;3627;46.544;14.944;2023-11-21T08:11:26;14.57;;;12.40;;
7171;SDS011;3627;46.544;14.944;2023-11-21T08:13:54;18.15;;;11.93;;
7171;SDS011;3627;46.544;14.944;2023-11-21T08:16:21;16.10;;;12.32;;
7171;SDS011;3627;46.544;14.944;2023-11-21T08:18:49;14.68;;;11.75;;
7171;SDS011;3627;46.544;14.944;2023-11-21T08:21:15;14.32;;;11.32;;
7171;SDS011;3627;46.544;14.944;2023-11-21T08:23:43;17.45;;;12.68;;
7171;SDS011;3627;46.544;14.944;2023-11-21T08:26:09;16.83;;;12.45;;
7171;SDS011;3627;46.544;14.944;2023-11-21T08:28:35;15.55;;;12.27;;
7171;SDS011;3627;46.544;14.944;2023-11-21T08:31:02;16.88;;;12.30;;
7171;SDS011;3627;46.544;14.944;2023-11-21T08:33:29;12.43;;;10.20;;
7171;SDS011;3627;46.544;14.944;2023-11-21T08:35:55;12.68;;;10.02;;
7171;SDS011;3627;46.544;14.944;2023-11-21T08:38:22;13.80;;;10.73;;
7171;SDS011;3627;46.544;14.944;2023-11-21T08:40:50;11.93;;;10.27;;
7171;SDS011;3627;46.544;14.944;2023-11-21T08:43:16;10.85;;;8.82;;
7171;SDS011;3627;46.544;14.944;2023-11-21T08:45:44;10.30;;;9.05;;
7171;SDS011;3627;46.544;14.944;2023-11-21T08:48:11;12.13;;;9.90;;
7171;SDS011;3627;46.544;14.944;2023-11-21T08:50:37;12.65;;;9.95;;
7171;SDS011;3627;46.544;14.944;2023-11-21T08:53:04;12.38;;;10.82;;
7171;SDS011;3627;46.544;14.944;2023-11-21T08:55:30;19.25;;;11.55;;
7171;SDS011;3627;46.544;14.944;2023-11-21T08:58:03;17.08;;;11.80;;
7171;SDS011;3627;46.544;14.944;2023-11-21T09:00:31;20.98;;;13.85;;
7171;SDS011;3627;46.544;14.944;2023-11-21T09:02:58;21.50;;;15.05;;
7171;SDS011;3627;46.544;14.944;2023-11-21T09:05:24;22.85;;;15.00;;
7171;SDS011;3627;46.544;14.944;2023-11-21T09:07:51;23.63;;;15.93;;
7171;SDS011;3627;46.544;14.944;2023-11-21T09:10:18;22.60;;;16.42;;
7171;SDS011;3627;46.544;14.944;2023-11-21T09:12:45;20.48;;;15.10;;
7171;SDS011;3627;46.544;14.944;2023-11-21T09:15:13;20.42;;;14.68;;
7171;SDS011;3627;46.544;14.944;2023-11-21T09:17:40;21.20;;;15.52;;
7171;SDS011;3627;46.544;14.944;2023-11-21T09:20:07;21.27;;;15.82;;
7171;SDS011;3627;46.544;14.944;2023-11-21T09:22:35;21.60;;;16.13;;
7171;SDS011;3627;46.544;14.944;2023-11-21T09:25:01;23.02;;;17.63;;
7171;SDS011;3627;46.544;14.944;2023-11-21T09:27:30;21.92;;;17.00;;
7171;SDS011;3627;46.544;14.944;2023-11-21T09:29:56;20.58;;;15.63;;
7171;SDS011;3627;46.544;14.944;2023-11-21T09:32:24;17.98;;;14.38;;
7171;SDS011;3627;46.544;14.944;2023-11-21T09:34:50;19.13;;;14.35;;
7171;SDS011;3627;46.544;14.944;2023-11-21T09:37:17;17.10;;;11.15;;
7171;SDS011;3627;46.544;14.944;2023-11-21T09:39:44;19.55;;;13.23;;
7171;SDS011;3627;46.544;14.944;2023-11-21T09:42:14;19.80;;;14.32;;
7171;SDS011;3627;46.544;14.944;2023-11-21T09:44:44;22.17;;;15.95;;
7171;SDS011;3627;46.544;14.944;2023-11-21T09:47:14;15.55;;;13.00;;
7171;SDS011;3627;46.544;14.944;2023-11-21T09:49:42;15.43;;;11.82;;
7171;SDS011;3627;46.544;14.944;2023-11-21T09:52:11;17.48;;;13.77;;
7171;SDS011;3627;46.544;14.944;2023-11-21T09:54:42;15.98;;;13.27;;
7171;SDS011;3627;46.544;14.944;2023-11-21T09:57:09;18.67;;;14.07;;
7171;SDS011;3627;46.544;14.944;2023-11-21T09:59:36;20.45;;;14.88;;
7171;SDS011;3627;46.544;14.944;2023-11-21T10:02:03;23.02;;;15.80;;
7171;SDS011;3627;46.544;14.944;2023-11-21T10:04:30;27.88;;;18.38;;
7171;SDS011;3627;46.544;14.944;2023-11-21T10:06:58;27.88;;;18.58;;
7171;SDS011;3627;46.544;14.944;2023-11-21T10:09:25;28.83;;;18.35;;
7171;SDS011;3627;46.544;14.944;2023-11-21T10:11:52;25.15;;;17.23;;
7171;SDS011;3627;46.544;14.944;2023-11-21T10:14:18;21.65;;;15.82;;
7171;SDS011;3627;46.544;14.944;2023-11-21T10:16:45;26.08;;;15.27;;
7171;SDS011;3627;46.544;14.944;2023-11-21T10:19:13;21.42;;;15.68;;
7171;SDS011;3627;46.544;14.944;2023-11-21T10:21:41;18.75;;;13.90;;
7171;SDS011;3627;46.544;14.944;2023-11-21T10:24:09;20.02;;;14.50;;
7171;SDS011;3627;46.544;14.944;2023-11-21T10:26:37;22.17;;;14.70;;
7171;SDS011;3627;46.544;14.944;2023-11-21T10:29:04;22.33;;;15.35;;
7171;SDS011;3627;46.544;14.944;2023-11-21T10:31:30;28.42;;;15.38;;
7171;SDS011;3627;46.544;14.944;2023-11-21T10:34:10;23.25;;;14.77;;
7171;SDS011;3627;46.544;14.944;2023-11-21T10:36:37;32.45;;;20.90;;
7171;SDS011;3627;46.544;14.944;2023-11-21T10:39:03;25.98;;;18.42;;
7171;SDS011;3627;46.544;14.944;2023-11-21T10:41:31;22.63;;;14.75;;
7171;SDS011;3627;46.544;14.944;2023-11-21T10:43:58;19.48;;;14.30;;
7171;SDS011;3627;46.544;14.944;2023-11-21T10:46:25;14.30;;;12.20;;
7171;SDS011;3627;46.544;14.944;2023-11-21T10:48:52;19.05;;;13.43;;
7171;SDS011;3627;46.544;14.944;2023-11-21T10:51:20;18.45;;;14.45;;
7171;SDS011;3627;46.544;14.944;2023-11-21T10:53:46;17.63;;;13.25;;
7171;SDS011;3627;46.544;14.944;2023-11-21T10:56:15;13.63;;;11.65;;
7171;SDS011;3627;46.544;14.944;2023-11-21T10:58:46;15.55;;;12.13;;
7171;SDS011;3627;46.544;14.944;2023-11-21T11:01:12;17.27;;;11.07;;
7171;SDS011;3627;46.544;14.944;2023-11-21T11:03:39;13.40;;;10.80;;
7171;SDS011;3627;46.544;14.944;2023-11-21T11:06:07;13.15;;;10.23;;
7171;SDS011;3627;46.544;14.944;2023-11-21T11:08:36;12.98;;;10.68;;
7171;SDS011;3627;46.544;14.944;2023-11-21T11:11:03;16.27;;;10.55;;
7171;SDS011;3627;46.544;14.944;2023-11-21T11:13:30;14.60;;;10.75;;
7171;SDS011;3627;46.544;14.944;2023-11-21T11:15:58;10.93;;;9.07;;
7171;SDS011;3627;46.544;14.944;2023-11-21T11:18:26;10.98;;;8.95;;
7171;SDS011;3627;46.544;14.944;2023-11-21T11:20:53;12.95;;;9.55;;
7171;SDS011;3627;46.544;14.944;2023-11-21T11:23:26;9.93;;;7.70;;
7171;SDS011;3627;46.544;14.944;2023-11-21T11:26:01;11.05;;;9.15;;
7171;SDS011;3627;46.544;14.944;2023-11-21T11:28:35;10.85;;;8.45;;
7171;SDS011;3627;46.544;14.944;2023-11-21T11:31:07;9.77;;;8.63;;
7171;SDS011;3627;46.544;14.944;2023-11-21T11:33:38;10.55;;;8.73;;
7171;SDS011;3627;46.544;14.944;2023-11-21T11:36:06;11.70;;;9.50;;
7171;SDS011;3627;46.544;14.944;2023-11-21T11:38:34;9.68;;;8.75;;
7171;SDS011;3627;46.544;14.944;2023-11-21T11:41:01;11.45;;;9.57;;
7171;SDS011;3627;46.544;14.944;2023-11-21T11:43:27;12.45;;;9.80;;
7171;SDS011;3627;46.544;14.944;2023-11-21T11:45:55;11.38;;;9.40;;
7171;SDS011;3627;46.544;14.944;2023-11-21T11:48:23;10.15;;;8.45;;
7171;SDS011;3627;46.544;14.944;2023-11-21T11:51:02;11.23;;;8.55;;
7171;SDS011;3627;46.544;14.944;2023-11-21T11:53:33;11.98;;;9.40;;
7171;SDS011;3627;46.544;14.944;2023-11-21T11:56:10;9.38;;;8.48;;
7171;SDS011;3627;46.544;14.944;2023-11-21T11:58:45;10.00;;;9.00;;
7171;SDS011;3627;46.544;14.944;2023-11-21T12:01:13;9.25;;;8.35;;
7171;SDS011;3627;46.544;14.944;2023-11-21T12:03:40;10.82;;;8.48;;
7171;SDS011;3627;46.544;14.944;2023-11-21T12:06:07;10.00;;;8.93;;
7171;SDS011;3627;46.544;14.944;2023-11-21T12:08:34;11.25;;;8.77;;
7171;SDS011;3627;46.544;14.944;2023-11-21T12:11:01;10.68;;;9.25;;
7171;SDS011;3627;46.544;14.944;2023-11-21T12:13:27;9.98;;;8.23;;
7171;SDS011;3627;46.544;14.944;2023-11-21T12:15:54;11.38;;;8.88;;
7171;SDS011;3627;46.544;14.944;2023-11-21T12:18:20;11.32;;;8.98;;
7171;SDS011;3627;46.544;14.944;2023-11-21T12:20:48;12.32;;;8.88;;
7171;SDS011;3627;46.544;14.944;2023-11-21T12:23:16;11.48;;;8.85;;
7171;SDS011;3627;46.544;14.944;2023-11-21T12:25:42;9.70;;;8.43;;
7171;SDS011;3627;46.544;14.944;2023-11-21T12:28:09;9.68;;;8.25;;
7171;SDS011;3627;46.544;14.944;2023-11-21T12:30:36;8.63;;;7.72;;
7171;SDS011;3627;46.544;14.944;2023-11-21T12:33:03;10.15;;;8.90;;
7171;SDS011;3627;46.544;14.944;2023-11-21T12:35:32;8.30;;;7.45;;
7171;SDS011;3627;46.544;14.944;2023-11-21T12:38:01;8.88;;;7.68;;
7171;SDS011;3627;46.544;14.944;2023-11-21T12:40:28;9.02;;;8.07;;
7171;SDS011;3627;46.544;14.944;2023-11-21T12:42:55;9.95;;;7.85;;
7171;SDS011;3627;46.544;14.944;2023-11-21T12:45:22;9.70;;;8.52;;
7171;SDS011;3627;46.544;14.944;2023-11-21T12:47:51;9.10;;;8.15;;
7171;SDS011;3627;46.544;14.944;2023-11-21T12:50:20;10.30;;;8.07;;
7171;SDS011;3627;46.544;14.944;2023-11-21T12:52:48;8.88;;;7.90;;
7171;SDS011;3627;46.544;14.944;2023-11-21T12:55:17;9.18;;;8.20;;
7171;SDS011;3627;46.544;14.944;2023-11-21T12:57:47;8.90;;;7.82;;
7171;SDS011;3627;46.544;14.944;2023-11-21T13:00:15;9.00;;;7.75;;
7171;SDS011;3627;46.544;14.944;2023-11-21T13:02:52;9.05;;;7.78;;
7171;SDS011;3627;46.544;14.944;2023-11-21T13:05:25;10.18;;;7.22;;
7171;SDS011;3627;46.544;14.944;2023-11-21T13:07:52;8.63;;;7.75;;
7171;SDS011;3627;46.544;14.944;2023-11-21T13:10:21;9.60;;;8.10;;
7171;SDS011;3627;46.544;14.944;2023-11-21T13:12:51;12.23;;;8.43;;
7171;SDS011;3627;46.544;14.944;2023-11-21T13:15:17;8.50;;;7.63;;
7171;SDS011;3627;46.544;14.944;2023-11-21T13:17:44;7.75;;;6.93;;
7171;SDS011;3627;46.544;14.944;2023-11-21T13:20:11;8.70;;;7.47;;
7171;SDS011;3627;46.544;14.944;2023-11-21T13:22:44;15.15;;;12.05;;
7171;SDS011;3627;46.544;14.944;2023-11-21T13:25:11;21.95;;;17.25;;
7171;SDS011;3627;46.544;14.944;2023-11-21T13:27:40;11.40;;;9.95;;
7171;SDS011;3627;46.544;14.944;2023-11-21T13:30:08;12.02;;;9.30;;
7171;SDS011;3627;46.544;14.944;2023-11-21T13:32:36;10.75;;;8.63;;
7171;SDS011;3627;46.544;14.944;2023-11-21T13:35:02;10.55;;;7.90;;
7171;SDS011;3627;46.544;14.944;2023-11-21T13:37:33;11.38;;;10.07;;
7171;SDS011;3627;46.544;14.944;2023-11-21T13:39:59;12.52;;;9.20;;
7171;SDS011;3627;46.544;14.944;2023-11-21T13:42:28;13.18;;;10.57;;
7171;SDS011;3627;46.544;14.944;2023-11-21T13:44:57;13.73;;;10.77;;
7171;SDS011;3627;46.544;14.944;2023-11-21T13:47:23;14.77;;;12.13;;
7171;SDS011;3627;46.544;14.944;2023-11-21T13:49:54;12.77;;;11.27;;
7171;SDS011;3627;46.544;14.944;2023-11-21T13:52:21;16.27;;;10.95;;
7171;SDS011;3627;46.544;14.944;2023-11-21T13:54:51;15.15;;;10.30;;
7171;SDS011;3627;46.544;14.944;2023-11-21T13:57:18;11.45;;;9.88;;
7171;SDS011;3627;46.544;14.944;2023-11-21T13:59:45;13.57;;;9.93;;
7171;SDS011;3627;46.544;14.944;2023-11-21T14:02:13;15.10;;;12.73;;
7171;SDS011;3627;46.544;14.944;2023-11-21T14:04:43;16.17;;;12.60;;
7171;SDS011;3627;46.544;14.944;2023-11-21T14:07:20;16.77;;;12.25;;
7171;SDS011;3627;46.544;14.944;2023-11-21T14:09:57;17.15;;;12.82;;
7171;SDS011;3627;46.544;14.944;2023-11-21T14:12:24;18.40;;;14.98;;
7171;SDS011;3627;46.544;14.944;2023-11-21T14:14:50;12.90;;;11.27;;
7171;SDS011;3627;46.544;14.944;2023-11-21T14:17:18;14.73;;;11.40;;
7171;SDS011;3627;46.544;14.944;2023-11-21T14:19:47;14.32;;;10.52;;
7171;SDS011;3627;46.544;14.944;2023-11-21T14:22:14;15.52;;;10.68;;
7171;SDS011;3627;46.544;14.944;2023-11-21T14:24:42;16.17;;;11.25;;
7171;SDS011;3627;46.544;14.944;2023-11-21T14:27:11;16.88;;;12.35;;
7171;SDS011;3627;46.544;14.944;2023-11-21T14:29:38;16.75;;;12.40;;
7171;SDS011;3627;46.544;14.944;2023-11-21T14:32:08;20.48;;;13.68;;
7171;SDS011;3627;46.544;14.944;2023-11-21T14:34:36;15.07;;;11.77;;
7171;SDS011;3627;46.544;14.944;2023-11-21T14:37:03;17.25;;;12.57;;
7171;SDS011;3627;46.544;14.944;2023-11-21T14:39:30;14.50;;;12.13;;
7171;SDS011;3627;46.544;14.944;2023-11-21T14:42:03;13.90;;;11.15;;
7171;SDS011;3627;46.544;14.944;2023-11-21T14:44:29;13.23;;;11.10;;
7171;SDS011;3627;46.544;14.944;2023-11-21T14:47:00;12.93;;;10.63;;